Aeroporto :
LOGIN :

Iscrizione | Disclaimer

   EN    FR    IT 

 










Sommario :    VFR   VFR Marginale   IFR   IFR Intensivo   IFR Molto Intensivo
Visibilità : 
Base nubi : 
>= 8 km
>= 3000ft
5 / 8 km
1000 / 3000 ft
1500m / 5 km
500 / 1000 ft
800 / 1500m
200 / 500 ft
< 800m
< 200 ft
Simboli :   Temporali  Nebbia  Neve Forte  Precipitazioni Forti  Vento > 20 kt
SIGMETs :   Varie  Temporali  Ghiacco  Turbolenza  Onda orograficha  Ceneri Vulcaniche






- Altitudine del aeroporto : 675 ft
- Codice IATA : RZE


EPRZ - Rzeszow-Jasionka

ULTIMO METAR :
  • 290800Z 34012KT 9999 SCT026 15/09 Q1020

METARs OBSOLETI :
  • 290730Z 30009KT 9999 FEW018 15/10 Q1019
  • 290700Z 33010KT 290V350 9999 BKN018 14/10 Q1020
  • 290630Z 31010KT 9999 SCT017 14/10 Q1020
  • 290600Z 34010KT 300V010 9999 SCT013 13/09 Q1020
  • 290530Z 32009KT 9999 BKN012 12/09 Q1020

TAF TAF EPRZ
Valido dal 29 a 06 ore il 30 a 06 ore UTC


290530Z 2906/3006 33010KT 9999 BKN017
TEMPO 2906/2909 BKN009
TEMPO 2909/3006 35015G25KT
PROB30
TEMPO 2909/2924 BKN020CB



MetMap, La meteo Aeronautica in un colpo d'occhio ! - Copyright ORBIFLY Dicembre 2007 - Disclaimer

ORBIFLY MET'MAP TEAM :

Programmazione e sviluppo : Alexandra Zaïnal
Concezione : Baudouin d'Aumeries
Aiuto per la programmazione : Marc-Olivier Méhu
Supporto tecnico e logistico : Manuel Goepfert
Aiuto per la traduzione : Arnaldo La Scala

Contatto : metmap@orbifly.com




FONTI E CREDITI :

   NOAA